ΕΜΥ, Εθνική Μετεωρολογική Υπηρεσία - Δελτία Καιρού, Προγνώσεις

ΑΕΡΟΝΑΥΤΙΛΙΑ

GREEK AIRPORTS CODES

TAF LGTS 232300Z 2400/2424 VRB03KT 9999 FEW025 BECMG 2408/2410 SCT025 PROB40 TEMPO 2410/2418 6000 RA BKN025 PROB30 TEMPO 2410/2415 3000 TSRA FEW018CB BKN020=

EUROPEAN AIRPORTS CODES